Armada, Michigan
Current Conditions -  °F | °C
As of 4:18 PM on Wednesday 26 Nov 2014 (Local Time) from KMTC Reporting Station
Overcast Overcast  
Wind Chill: 30°   Ceiling: 2900
Heat Index: 34°   Visibility: 10mi
Dew Point: 25°   Wind: 5mph
Humidity: 70%   Direction: 30°NNE
Pressure: 30.07"   Gusts: NA
Location:  42.84°N, 82.88°W
Report Text: KMTC 262118Z 03004KT 10SM OVC029 01/M04 A3007
Loading
Personal Weather Stations






























Interactive Weather Map New forecast layout! Learn more

10-Day Weather Forecast

Advertisements
Track Severe Weather on mobile